Latest Weather Observations for Brisbane Airport

IDQ60801

Issued at 4:21 am EST Monday 19 November 2018 (issued every 10 minutes, with the page automatically refreshed every 10 minutes)

About weather observations | Map of weather stations | Latest weather observations for QLD | Other Formats
Station Details ID: 040842 Name: BRISBANE AERO Lat: -27.39 Lon: 153.13 Height: 4.51 m
Data from the previous 72 hours. | See also: Recent months at Brisbane Airport
Date/Time
EST
Temp
°C
App
Temp
°C
Dew
Point
°C
Rel
Hum
%
Delta-T
°C
Wind Press
QNH
hPa
Press
MSL
hPa
Rain since
9am
mm
Dir  Spd
km/h
Gust
km/h
Spd
kts
Gust
kts
19/04:00am 19.0 18.2 14.1 73 2.8 SSW 11 17 6 9 1018.3 1018.2 0.0
19/03:30am 19.3 18.8 13.7 70 3.2 S 9 15 5 8 1018.2 1018.1 0.0
19/03:00am 19.5 18.8 14.3 72 3.0 S 11 17 6 9 1018.2 1018.1 0.0
19/02:30am 19.3 18.7 14.5 74 2.8 ESE 11 17 6 9 1018.1 1018.0 0.0
19/02:00am 19.8 19.6 14.8 73 2.9 SSE 9 13 5 7 1018.1 1018.0 0.0
19/01:30am 19.9 18.7 15.1 74 2.8 SE 15 26 8 14 1018.5 1018.4 0.0
19/01:00am 19.9 19.0 14.9 73 2.9 SE 13 22 7 12 1019.0 1018.9 0.0
19/12:30am 21.3 19.4 14.3 64 4.1 ESE 17 28 9 15 1019.1 1019.0 0.0
19/12:00am 21.8 20.3 13.2 58 4.9 ESE 13 26 7 14 1019.5 1019.4 0.0
 
Date/Time
EST
Temp
°C
App
Temp
°C
Dew
Point
°C
Rel
Hum
%
Delta-T
°C
Wind Press
QNH
hPa
Press
MSL
hPa
Rain since
9am
mm
Dir  Spd
km/h
Gust
km/h
Spd
kts
Gust
kts
18/11:30pm 21.6 19.8 13.4 59 4.7 ESE 15 30 8 16 1019.7 1019.6 0.0
18/11:00pm 21.8 19.6 13.4 59 4.8 ESE 17 30 9 16 1019.9 1019.8 0.0
18/10:30pm 21.8 19.5 13.0 57 5.0 ESE 17 28 9 15 1019.8 1019.7 0.0
18/10:00pm 21.9 19.4 13.4 58 4.9 ESE 19 30 10 16 1019.9 1019.8 0.0
18/09:30pm 20.7 20.2 16.0 74 2.8 SSE 13 22 7 12 1019.6 1019.5 0.0
18/09:00pm 21.0 20.5 16.0 73 3.0 SE 13 28 7 15 1019.6 1019.5 0.0
18/08:30pm 21.6 19.8 15.6 68 3.6 ESE 19 30 10 16 1019.4 1019.3 0.0
18/08:00pm 21.3 19.1 16.0 72 3.2 SE 22 37 12 20 1019.2 1019.1 0.0
18/07:30pm 22.6 20.3 14.2 59 4.9 ESE 19 33 10 18 1018.8 1018.7 0.0
18/07:00pm 22.2 20.5 15.7 66 3.9 ESE 19 28 10 15 1018.3 1018.2 0.0
18/06:30pm 21.7 20.5 16.0 70 3.4 ESE 17 28 9 15 1018.3 1018.2 0.0
18/06:00pm 22.5 20.7 15.5 64 4.2 SE 19 35 10 19 1018.0 1017.9 0.0
18/05:30pm 22.9 21.0 15.2 62 4.6 ESE 19 32 10 17 1017.4 1017.4 0.0
18/05:00pm 23.1 21.0 15.2 61 4.7 SE 20 33 11 18 1017.1 1017.1 0.0
18/04:30pm 23.3 20.7 14.9 59 5.0 ESE 22 35 12 19 1017.1 1017.1 0.0
18/04:00pm 23.9 21.7 14.8 56 5.4 ESE 20 35 11 19 1017.2 1017.2 0.0
18/03:30pm 24.6 21.9 14.5 53 6.0 ESE 22 35 12 19 1017.4 1017.4 0.0
18/03:00pm 24.5 22.3 14.8 54 5.8 ESE 20 32 11 17 1017.5 1017.5 0.0
18/02:30pm 24.3 21.3 14.9 55 5.6 ESE 24 33 13 18 1017.4 1017.4 0.0
18/02:00pm 24.8 22.1 15.7 57 5.5 ESE 24 33 13 18 1017.7 1017.7 0.0
18/01:30pm 25.3 22.7 14.9 52 6.2 ESE 22 39 12 21 1017.8 1017.8 0.0
18/01:00pm 25.7 22.9 15.4 53 6.2 ESE 24 37 13 20 1018.1 1018.0 0.0
18/12:30pm 24.6 21.9 14.7 54 5.9 ESE 22 37 12 20 1018.4 1018.3 0.0
18/12:00pm 24.8 21.8 14.9 54 5.9 ESE 24 39 13 21 1018.5 1018.4 0.0
18/11:30am 24.2 21.8 15.4 58 5.3 ESE 22 37 12 20 1018.6 1018.5 0.0
18/11:00am 24.0 21.6 15.5 59 5.1 ESE 22 35 12 19 1018.5 1018.4 0.0
18/10:30am 23.0 22.2 18.0 73 3.1 ESE 19 28 10 15 1018.6 1018.5 0.0
18/10:00am 23.5 22.6 18.2 72 3.3 ESE 20 33 11 18 1018.8 1018.7 0.0
18/09:30am 23.0 22.1 18.2 74 3.0 ESE 20 33 11 18 1019.1 1019.0 0.0
18/09:00am 21.9 21.0 16.8 73 3.1 SE 17 28 9 15 1018.9 1018.8 5.8
18/08:30am 21.2 21.0 17.5 79 2.3 SSE 15 24 8 13 1018.7 1018.6 5.8
18/08:00am 21.7 21.1 17.5 77 2.6 SSE 17 33 9 18 1018.5 1018.4 5.8
18/07:30am 21.3 20.8 17.7 80 2.2 SSE 17 26 9 14 1018.2 1018.1 5.8
18/07:00am 21.3 20.8 17.9 81 2.1 SSE 17 26 9 14 1018.0 1017.9 5.8
18/06:30am 20.5 20.2 17.4 82 1.9 S 15 26 8 14 1017.5 1017.5 5.8
18/06:00am 19.7 20.1 17.2 85 1.5 SSW 11 17 6 9 1017.1 1017.1 5.8
18/05:30am 18.5 18.8 17.0 91 0.9 S 11 15 6 8 1016.7 1016.7 5.8
18/05:00am 17.8 18.0 16.8 94 0.6 SSW 11 13 6 7 1016.4 1016.4 5.8
18/04:30am 17.3 17.8 16.5 95 0.5 SSW 9 13 5 7 1015.9 1015.9 5.8
18/04:00am 18.0 18.2 16.8 93 0.7 S 11 15 6 8 1015.5 1015.5 5.8
18/03:30am 17.6 17.5 16.9 96 0.4 SSW 13 17 7 9 1015.7 1015.7 5.8
18/03:00am 17.7 18.0 17.0 96 0.4 SSW 11 13 6 7 1015.7 1015.7 5.8
18/02:30am 17.9 18.7 17.2 96 0.4 SSW 9 11 5 6 1015.5 1015.5 5.8
18/02:00am 18.1 18.5 17.3 95 0.5 SW 11 15 6 8 1015.9 1015.9 5.8
18/01:30am 19.0 20.1 17.9 93 0.7 S 9 13 5 7 1015.7 1015.7 5.8
18/01:00am 19.0 20.1 17.9 93 0.7 SSW 9 13 5 7 1016.0 1016.0 5.8
18/12:30am 18.6 18.9 17.8 95 0.5 SSW 13 17 7 9 1015.8 1015.8 5.8
18/12:00am 18.8 19.4 17.8 94 0.6 SSW 11 15 6 8 1016.1 1016.1 5.8
 
Date/Time
EST
Temp
°C
App
Temp
°C
Dew
Point
°C
Rel
Hum
%
Delta-T
°C
Wind Press
QNH
hPa
Press
MSL
hPa
Rain since
9am
mm
Dir  Spd
km/h
Gust
km/h
Spd
kts
Gust
kts
17/11:30pm 18.6 19.1 17.4 93 0.7 SSW 11 17 6 9 1016.4 1016.4 5.8
17/11:00pm 20.4 21.8 17.8 85 1.6 ESE 7 15 4 8 1016.3 1016.3 5.8
17/10:30pm 20.5 20.6 17.4 82 1.9 ENE 13 20 7 11 1016.7 1016.7 5.8
17/10:00pm 20.5 20.0 17.7 84 1.7 E 17 26 9 14 1016.8 1016.8 5.8
17/09:30pm 20.7 21.2 18.3 86 1.5 E 13 20 7 11 1017.0 1017.0 5.8
17/09:00pm 20.4 20.1 17.3 82 1.9 E 15 24 8 13 1017.0 1017.0 5.8
17/08:30pm 20.0 19.2 17.2 84 1.7 ESE 17 28 9 15 1016.6 1016.6 5.8
17/08:00pm 19.9 20.3 19.1 95 0.5 SE 15 32 8 17 1016.1 1016.1 5.0
17/07:46pm 19.9 20.2 18.8 93 0.7 SE 15 24 8 13 1015.9 1015.9 4.8
17/07:34pm 19.7 19.3 18.9 95 0.5 SE 19 37 10 20 1015.9 1015.9 2.6
17/07:30pm 19.8 19.7 18.7 93 0.7 SSE 17 37 9 20 1015.8 1015.8 2.0
17/07:29pm 19.9 19.7 18.6 92 0.8 SSE 17 37 9 20 1015.7 1015.7 1.8
17/07:00pm 21.9 23.0 19.7 87 1.4 W 13 24 7 13 1013.7 1013.7 1.0
17/06:30pm 21.9 19.0 20.0 89 1.2 NNW 35 44 19 24 1012.4 1012.4 1.0
17/06:18pm 22.5 22.5 20.2 87 1.5 NNW 20 33 11 18 1011.8 1011.8 0.8
17/06:00pm 23.3 23.0 19.2 78 2.6 N 19 26 10 14 1013.6 1013.6 0.2
17/05:30pm 23.2 24.6 18.6 75 2.9 NE 9 19 5 10 1012.6 1012.6 0.2
17/05:00pm 23.7 24.3 18.5 72 3.3 ENE 13 22 7 12 1012.1 1012.1 0.2
17/04:30pm 22.9 22.3 18.8 77 2.6 NNE 20 30 11 16 1011.3 1011.3 0.0
17/04:00pm 24.7 23.6 17.8 65 4.3 NE 20 28 11 15 1012.4 1012.4 0.0
17/03:30pm 25.2 23.4 17.9 64 4.6 NE 24 32 13 17 1011.7 1011.7 0.0
17/03:00pm 27.0 25.3 18.0 58 5.7 NE 24 32 13 17 1011.9 1011.9 0.0
17/02:30pm 27.2 25.0 17.9 56 5.9 NE 26 33 14 18 1012.1 1012.1 0.0
17/02:00pm 26.2 25.2 18.0 60 5.2 NE 20 28 11 15 1013.1 1013.1 0.0
17/01:30pm 26.9 24.3 15.8 50 6.8 NE 24 30 13 16 1013.4 1013.4 0.0
17/01:00pm 26.9 25.0 16.8 54 6.3 NE 22 30 12 16 1013.8 1013.8 0.0
17/12:30pm 27.1 24.4 16.6 52 6.5 NNE 26 32 14 17 1013.9 1013.9 0.0
17/12:00pm 28.0 26.3 18.1 55 6.3 NNE 24 33 13 18 1014.1 1014.1 0.0
17/11:30am 27.4 25.8 16.4 51 6.8 NNE 20 28 11 15 1014.7 1014.7 0.0
17/11:00am 27.4 26.4 16.6 51 6.7 NNE 17 22 9 12 1015.4 1015.4 0.0
17/10:30am 26.6 25.8 17.1 56 5.9 NE 17 26 9 14 1015.6 1015.6 0.0
17/10:00am 27.4 26.6 16.2 50 6.9 NNE 15 22 8 12 1015.7 1015.7 0.0
17/09:30am 26.6 26.0 15.6 50 6.7 N 13 19 7 10 1016.1 1016.1 0.0
17/09:00am 25.6 25.4 16.7 58 5.5 N 13 17 7 9 1016.1 1016.1 0.0
17/08:30am 25.3 25.4 17.4 61 4.9 N 13 19 7 10 1016.2 1016.2 0.0
17/08:00am 24.3 25.0 17.9 67 4.0 NNW 11 15 6 8 1016.1 1016.1 0.0
17/07:30am 24.2 25.3 18.0 68 3.9 WSW 9 13 5 7 1016.1 1016.1 0.0
17/07:00am 23.5 25.0 18.1 71 3.4 SW 7 13 4 7 1016.1 1016.1 0.0
17/06:30am 22.7 24.1 17.9 74 3.0 SSW 7 11 4 6 1015.8 1015.8 0.0
17/06:00am 21.2 22.7 18.1 82 1.9 SSW 7 9 4 5 1015.5 1015.5 0.0
17/05:30am 20.9 22.9 17.8 82 1.9 SW 4 11 2 6 1015.1 1015.1 0.0
17/05:00am 20.0 22.4 16.9 82 1.9 CALM 0 0 0 0 1014.8 1014.8 0.0
17/04:30am 20.1 21.2 17.1 83 1.8 NNE 7 9 4 5 1014.4 1014.4 0.0
17/04:00am 20.2 21.8 16.9 81 2.0 NNE 4 9 2 5 1014.2 1014.2 0.0
17/03:30am 20.4 22.8 16.9 80 2.1 CALM 0 0 0 0 1014.1 1014.1 0.0
17/03:00am 20.9 23.2 16.8 77 2.5 CALM 0 0 0 0 1014.1 1014.1 0.0
17/02:30am 20.5 21.6 17.1 81 2.1 NE 7 11 4 6 1014.2 1014.2 0.0
17/02:00am 21.5 22.6 17.1 76 2.7 ENE 7 9 4 5 1014.6 1014.6 0.0
17/01:30am 22.5 23.5 16.8 70 3.5 E 7 9 4 5 1015.0 1015.0 0.0
17/01:00am 22.5 23.8 17.1 71 3.3 ENE 6 9 3 5 1015.3 1015.3 0.0
17/12:30am 22.3 23.5 17.4 74 3.0 NE 7 11 4 6 1015.6 1015.6 0.0
17/12:00am 23.1 23.7 16.9 68 3.8 NE 9 11 5 6 1015.6 1015.6 0.0
 
Date/Time
EST
Temp
°C
App
Temp
°C
Dew
Point
°C
Rel
Hum
%
Delta-T
°C
Wind Press
QNH
hPa
Press
MSL
hPa
Rain since
9am
mm
Dir  Spd
km/h
Gust
km/h
Spd
kts
Gust
kts
16/11:30pm 23.3 24.0 17.1 68 3.8 ENE 9 11 5 6 1016.1 1016.1 0.0
16/11:00pm 23.1 23.9 17.3 70 3.6 ENE 9 13 5 7 1016.4 1016.4 0.0
16/10:30pm 23.0 24.1 17.0 69 3.7 ENE 7 9 4 5 1016.4 1016.4 0.0
16/10:00pm 23.0 23.8 17.2 70 3.6 NE 9 13 5 7 1016.4 1016.4 0.0
16/09:30pm 22.5 23.0 17.5 73 3.1 NE 11 15 6 8 1016.5 1016.5 0.0
16/09:00pm 22.5 22.6 17.5 73 3.1 NE 13 20 7 11 1016.3 1016.3 0.0
16/08:30pm 22.2 22.2 17.3 74 3.0 NE 13 19 7 10 1016.1 1016.1 0.0
16/08:00pm 22.5 22.5 17.3 72 3.2 NE 13 20 7 11 1015.7 1015.7 0.0
16/07:30pm 23.0 22.5 17.0 69 3.7 NE 15 20 8 11 1015.2 1015.2 0.0
16/07:00pm 23.0 22.2 17.2 70 3.6 NE 17 24 9 13 1014.7 1014.7 0.0
16/06:30pm 23.6 22.7 16.8 65 4.2 NE 17 24 9 13 1014.5 1014.5 0.0
16/06:00pm 24.2 22.9 16.7 63 4.6 NE 19 26 10 14 1014.3 1014.3 0.0
16/05:30pm 24.8 23.5 16.9 61 4.9 NE 19 26 10 14 1014.0 1014.0 0.0
16/05:00pm 25.4 24.1 17.2 60 5.1 NE 20 28 11 15 1013.7 1013.7 0.0
16/04:30pm 25.7 24.6 17.7 61 5.0 NE 20 30 11 16 1013.5 1013.5 0.0
16/04:00pm 25.8 24.5 18.2 63 4.8 NNE 22 28 12 15 1013.6 1013.6 0.0
16/03:30pm 26.2 24.8 18.0 60 5.2 NE 22 30 12 16 1013.5 1013.5 0.0
16/03:00pm 26.3 24.1 17.9 60 5.3 NE 26 32 14 17 1013.7 1013.7 0.0
16/02:30pm 26.6 24.8 17.0 55 6.0 NE 22 28 12 15 1014.0 1014.0 0.0
16/02:00pm 26.8 24.9 16.6 53 6.3 NNE 22 32 12 17 1014.5 1014.5 0.0
16/01:30pm 26.8 24.3 16.2 52 6.5 NNE 24 30 13 16 1014.9 1014.9 0.0
16/01:00pm 27.0 24.7 15.7 50 6.9 NNE 22 28 12 15 1015.1 1015.1 0.0
16/12:30pm 26.8 24.8 15.4 49 6.9 NE 20 28 11 15 1015.6 1015.6 0.0
16/12:00pm 27.0 25.7 15.7 50 6.9 NNE 17 26 9 14 1016.1 1016.1 0.0
16/11:30am 26.4 24.5 15.1 49 6.8 NNE 19 26 10 14 1016.6 1016.6 0.0
16/11:00am 27.0 25.6 15.5 49 7.0 NNE 17 26 9 14 1016.9 1016.9 0.0
16/10:30am 26.7 25.7 15.5 50 6.8 NE 15 26 8 14 1017.2 1017.2 0.0
16/10:00am 25.9 24.9 15.7 53 6.2 NNE 15 20 8 11 1017.6 1017.6 0.0
16/09:30am 25.1 24.8 17.4 62 4.8 NNE 15 24 8 13 1018.0 1017.9 0.0
16/09:00am 25.5 25.2 17.3 60 5.1 NNE 15 19 8 10 1018.0 1017.9 0.0
16/08:30am 24.3 23.8 17.0 63 4.5 NNE 15 20 8 11 1017.8 1017.8 0.0
16/08:00am 24.4 24.4 17.1 63 4.5 N 13 19 7 10 1017.8 1017.8 0.0
16/07:30am 23.9 24.9 17.8 68 3.8 N 9 11 5 6 1017.7 1017.7 0.0
16/07:00am 23.4 25.9 18.1 72 3.3 S 2 7 1 4 1017.6 1017.6 0.0
16/06:30am 22.7 25.8 18.7 78 2.5 CALM 0 0 0 0 1017.4 1017.4 0.0
16/06:00am 21.4 24.4 18.4 83 1.9 CALM 0 0 0 0 1017.3 1017.3 0.0
16/05:30am 19.2 20.1 17.6 90 1.0 SSW 9 11 5 6 1017.2 1017.2 0.0
16/05:00am 19.8 21.2 17.7 88 1.3 SSW 7 9 4 5 1017.0 1017.0 0.0
16/04:30am 19.0 21.4 17.0 88 1.2 CALM 0 0 0 0 1016.7 1016.7 0.0

Other Formats:

Comma delimited format used in spreadsheet applications
http://www.bom.gov.au/fwo/IDQ60801/IDQ60801.94578.axf

JavaScript Object Notation format (JSON) in row-major order
http://www.bom.gov.au/fwo/IDQ60801/IDQ60801.94578.json